createdAt,value
2019-05-25T00:02:08.697Z,9.57
2019-05-25T00:04:39.331Z,8.77
2019-05-25T00:07:06.145Z,8.83
2019-05-25T00:09:32.927Z,8.90
2019-05-25T00:11:59.892Z,8.63
2019-05-25T00:14:26.531Z,10.17
2019-05-25T00:16:53.226Z,9.33
2019-05-25T00:19:19.833Z,10.33
2019-05-25T00:21:46.729Z,8.63
2019-05-25T00:24:13.422Z,8.37
2019-05-25T00:26:40.450Z,9.37
2019-05-25T00:29:07.121Z,8.63
2019-05-25T00:31:33.904Z,9.53
2019-05-25T00:34:00.772Z,9.37
2019-05-25T00:36:27.777Z,9.20
2019-05-25T00:38:54.899Z,8.80
2019-05-25T00:41:21.585Z,9.23
2019-05-25T00:43:48.401Z,9.97
2019-05-25T00:46:16.983Z,8.70
2019-05-25T00:48:43.525Z,8.93
2019-05-25T00:51:10.294Z,8.33
2019-05-25T00:53:39.702Z,9.00
2019-05-25T00:56:06.327Z,9.00
2019-05-25T00:58:32.997Z,8.83
2019-05-25T01:01:00.044Z,8.23
2019-05-25T01:03:26.773Z,8.70
2019-05-25T01:05:53.448Z,8.77
2019-05-25T01:08:20.062Z,8.70
2019-05-25T01:10:46.754Z,9.17
2019-05-25T01:13:13.422Z,9.03
2019-05-25T01:15:40.024Z,9.30
2019-05-25T01:18:06.735Z,9.10
2019-05-25T01:20:33.501Z,9.40
2019-05-25T01:23:00.220Z,9.37
2019-05-25T01:25:27.279Z,8.57
2019-05-25T01:27:53.986Z,9.63
2019-05-25T01:30:20.921Z,8.70
2019-05-25T01:32:47.504Z,9.10
2019-05-25T01:35:14.411Z,8.33
2019-05-25T01:37:41.257Z,8.60
2019-05-25T01:40:09.326Z,7.50
2019-05-25T01:42:36.190Z,7.60
2019-05-25T01:45:05.449Z,7.43
2019-05-25T01:47:32.304Z,7.93
2019-05-25T01:49:58.886Z,8.13
2019-05-25T01:52:25.642Z,7.50
2019-05-25T01:54:59.910Z,7.40
2019-05-25T01:57:20.957Z,8.40
2019-05-25T01:59:47.622Z,8.00
2019-05-25T02:02:14.382Z,8.53
2019-05-25T02:04:41.144Z,7.70
2019-05-25T02:07:07.966Z,7.50
2019-05-25T02:09:34.618Z,7.43
2019-05-25T02:12:01.488Z,7.90
2019-05-25T02:14:28.358Z,8.17
2019-05-25T02:16:55.109Z,8.30
2019-05-25T02:19:21.999Z,8.20
2019-05-25T02:21:49.664Z,7.73
2019-05-25T02:24:16.322Z,8.13
2019-05-25T02:26:42.976Z,7.50
2019-05-25T02:29:09.895Z,7.57
2019-05-25T02:31:36.663Z,8.13
2019-05-25T02:34:03.594Z,7.90
2019-05-25T02:36:30.256Z,8.47
2019-05-25T02:38:57.073Z,8.77
2019-05-25T02:41:24.359Z,8.73
2019-05-25T02:43:50.911Z,8.00
2019-05-25T02:46:17.628Z,8.03
2019-05-25T02:48:44.504Z,8.57
2019-05-25T02:51:11.577Z,8.23
2019-05-25T02:53:38.257Z,9.00
2019-05-25T02:56:05.020Z,7.67
2019-05-25T02:58:31.588Z,7.63
2019-05-25T03:00:58.477Z,8.97
2019-05-25T03:03:25.488Z,7.17
2019-05-25T03:05:54.668Z,7.20
2019-05-25T03:08:21.630Z,7.97
2019-05-25T03:10:49.383Z,8.23
2019-05-25T03:13:16.927Z,8.70
2019-05-25T03:15:43.852Z,8.90
2019-05-25T03:18:10.400Z,8.53
2019-05-25T03:20:37.107Z,9.03
2019-05-25T03:23:03.899Z,7.77
2019-05-25T03:25:30.537Z,8.70
2019-05-25T03:27:57.115Z,8.50
2019-05-25T03:30:29.509Z,8.50
2019-05-25T03:32:56.525Z,8.63
2019-05-25T03:35:23.067Z,8.63
2019-05-25T03:37:49.678Z,8.43
2019-05-25T03:40:16.545Z,9.03
2019-05-25T03:42:43.953Z,9.33
2019-05-25T03:45:10.970Z,9.03
2019-05-25T03:47:37.648Z,8.20
2019-05-25T03:50:05.669Z,9.33
2019-05-25T03:52:32.572Z,8.03
2019-05-25T03:54:59.332Z,9.00
2019-05-25T03:57:26.635Z,8.83
2019-05-25T03:59:53.497Z,9.20
2019-05-25T04:02:20.063Z,9.13
2019-05-25T04:04:46.642Z,8.40
2019-05-25T04:07:13.273Z,7.67
2019-05-25T04:09:39.829Z,8.53
2019-05-25T04:12:07.819Z,8.90
2019-05-25T04:14:34.426Z,8.23
2019-05-25T04:17:01.112Z,7.43
2019-05-25T04:19:27.766Z,7.10
2019-05-25T04:21:54.474Z,8.37
2019-05-25T04:24:21.400Z,7.70
2019-05-25T04:26:48.108Z,7.43
2019-05-25T04:29:14.743Z,7.43
2019-05-25T04:31:41.431Z,7.50
2019-05-25T04:34:08.005Z,7.83
2019-05-25T04:36:34.648Z,8.50
2019-05-25T04:39:01.384Z,7.30
2019-05-25T04:41:28.026Z,8.20
2019-05-25T04:43:55.149Z,8.80
2019-05-25T04:46:21.846Z,9.83
2019-05-25T04:48:48.559Z,8.00
2019-05-25T04:51:15.181Z,8.37
2019-05-25T04:53:41.741Z,10.17
2019-05-25T04:56:08.396Z,9.53
2019-05-25T04:58:35.515Z,9.27
2019-05-25T05:01:04.210Z,9.10
2019-05-25T05:03:31.087Z,10.40
2019-05-25T05:05:57.783Z,9.23
2019-05-25T05:08:24.425Z,10.00
2019-05-25T05:10:51.110Z,10.50
2019-05-25T05:13:17.825Z,10.53
2019-05-25T05:15:44.376Z,9.53
2019-05-25T05:18:11.120Z,9.37
2019-05-25T05:20:37.909Z,9.60
2019-05-25T05:23:04.473Z,8.00
2019-05-25T05:25:31.261Z,8.47
2019-05-25T05:27:57.910Z,9.53
2019-05-25T05:30:30.273Z,9.37
2019-05-25T05:32:57.362Z,8.47
2019-05-25T05:35:24.450Z,9.13
2019-05-25T05:37:51.597Z,8.07
2019-05-25T05:40:18.518Z,8.03
2019-05-25T05:42:48.009Z,8.70
2019-05-25T05:45:14.914Z,7.57
2019-05-25T05:47:46.410Z,8.00
2019-05-25T05:50:13.842Z,7.37
2019-05-25T05:52:40.603Z,7.30
2019-05-25T05:55:11.088Z,6.80
2019-05-25T05:57:37.787Z,6.43
2019-05-25T06:00:09.591Z,6.00
2019-05-25T06:02:36.253Z,6.07
2019-05-25T06:05:05.058Z,6.10
2019-05-25T06:07:31.906Z,6.27
2019-05-25T06:09:58.640Z,6.03
2019-05-25T06:12:25.248Z,6.63
2019-05-25T06:14:52.188Z,5.87
2019-05-25T06:17:18.784Z,5.37
2019-05-25T06:19:45.488Z,5.97
2019-05-25T06:22:12.177Z,5.10
2019-05-25T06:24:38.863Z,5.80
2019-05-25T06:27:05.644Z,5.70
2019-05-25T06:29:32.275Z,5.17
2019-05-25T06:31:58.948Z,4.83
2019-05-25T06:34:26.777Z,5.20
2019-05-25T06:36:53.787Z,4.63
2019-05-25T06:39:20.491Z,5.43
2019-05-25T06:41:47.120Z,4.80
2019-05-25T06:44:13.974Z,4.40
2019-05-25T06:46:40.743Z,3.67
2019-05-25T06:49:07.379Z,3.63
2019-05-25T06:51:34.222Z,2.77
2019-05-25T06:54:01.168Z,3.60
2019-05-25T06:56:27.781Z,3.50
2019-05-25T06:58:58.002Z,3.33
2019-05-25T07:01:24.805Z,3.90
2019-05-25T07:03:51.591Z,3.67
2019-05-25T07:06:18.276Z,3.77
2019-05-25T07:08:44.995Z,2.90
2019-05-25T07:11:11.611Z,3.43
2019-05-25T07:13:38.330Z,3.57
2019-05-25T07:16:05.039Z,3.30
2019-05-25T07:18:35.175Z,2.70
2019-05-25T07:21:00.276Z,3.13
2019-05-25T07:23:27.084Z,3.10
2019-05-25T07:25:53.813Z,3.53
2019-05-25T07:28:20.574Z,3.23
2019-05-25T07:30:47.245Z,2.73
2019-05-25T07:33:14.195Z,3.17
2019-05-25T07:35:40.863Z,3.30
2019-05-25T07:38:07.558Z,3.80
2019-05-25T07:40:35.596Z,2.87
2019-05-25T07:43:02.381Z,3.87
2019-05-25T07:45:29.104Z,3.40
2019-05-25T07:47:55.830Z,3.03
2019-05-25T07:50:22.800Z,2.90
2019-05-25T07:52:49.399Z,3.30
2019-05-25T07:55:16.244Z,3.30
2019-05-25T07:57:42.844Z,2.77
2019-05-25T08:00:10.257Z,3.33
2019-05-25T08:02:37.176Z,2.87
2019-05-25T08:05:06.316Z,2.80
2019-05-25T08:07:32.943Z,3.00
2019-05-25T08:09:59.661Z,3.13
2019-05-25T08:12:26.403Z,2.53
2019-05-25T08:14:53.396Z,2.90
2019-05-25T08:17:20.162Z,3.07
2019-05-25T08:19:46.733Z,2.90
2019-05-25T08:22:13.305Z,3.13
2019-05-25T08:24:40.119Z,2.70
2019-05-25T08:27:07.932Z,2.83
2019-05-25T08:29:34.569Z,2.50
2019-05-25T08:32:01.497Z,2.53
2019-05-25T08:34:28.266Z,3.37
2019-05-25T08:36:55.115Z,3.00
2019-05-25T08:39:21.983Z,2.40
2019-05-25T08:41:48.582Z,2.80
2019-05-25T08:44:15.341Z,2.20
2019-05-25T08:46:42.162Z,2.40
2019-05-25T08:49:08.925Z,2.27
2019-05-25T08:51:35.654Z,2.53
2019-05-25T08:54:02.874Z,2.20
2019-05-25T08:56:29.703Z,2.27
2019-05-25T08:58:56.386Z,2.03
2019-05-25T09:01:23.131Z,2.00
2019-05-25T09:03:49.754Z,2.00
2019-05-25T09:06:16.554Z,2.20
2019-05-25T09:08:43.165Z,1.83
2019-05-25T09:11:10.068Z,2.27
2019-05-25T09:13:37.324Z,1.80
2019-05-25T09:16:04.175Z,2.20
2019-05-25T09:18:30.865Z,1.77
2019-05-25T09:20:57.618Z,1.80
2019-05-25T09:23:24.232Z,2.37
2019-05-25T09:25:51.121Z,1.97
2019-05-25T09:28:17.988Z,2.10
2019-05-25T09:30:44.637Z,2.20
2019-05-25T09:33:11.308Z,2.10
2019-05-25T09:35:37.957Z,2.00
2019-05-25T09:38:04.590Z,1.90
2019-05-25T09:40:32.289Z,2.03
2019-05-25T09:42:59.099Z,1.57
2019-05-25T09:45:25.783Z,1.70
2019-05-25T09:47:52.637Z,2.10
2019-05-25T09:50:19.439Z,2.20
2019-05-25T09:52:47.329Z,1.93
2019-05-25T09:55:15.147Z,2.23
2019-05-25T09:57:42.114Z,1.80
2019-05-25T10:00:13.216Z,2.13
2019-05-25T10:02:40.622Z,1.77
2019-05-25T10:05:09.123Z,1.70
2019-05-25T10:07:35.782Z,2.07
2019-05-25T10:10:06.018Z,2.20
2019-05-25T10:12:32.853Z,2.80
2019-05-25T10:14:59.459Z,2.33
2019-05-25T10:17:26.290Z,2.43
2019-05-25T10:19:53.233Z,2.30
2019-05-25T10:22:19.932Z,2.43
2019-05-25T10:24:46.634Z,2.60
2019-05-25T10:27:13.236Z,2.47
2019-05-25T10:29:39.822Z,2.33
2019-05-25T10:32:06.380Z,2.20
2019-05-25T10:34:33.160Z,2.83
2019-05-25T10:36:59.922Z,2.40
2019-05-25T10:39:26.881Z,2.60
2019-05-25T10:41:53.577Z,2.27
2019-05-25T10:44:20.320Z,1.83
2019-05-25T10:46:47.201Z,2.07
2019-05-25T10:49:13.799Z,2.37
2019-05-25T10:51:40.714Z,2.40
2019-05-25T10:54:07.347Z,2.33
2019-05-25T10:56:34.044Z,2.20
2019-05-25T10:59:02.736Z,2.30
2019-05-25T11:01:29.527Z,2.13
2019-05-25T11:03:56.092Z,2.60
2019-05-25T11:06:22.662Z,2.20
2019-05-25T11:08:49.315Z,2.27
2019-05-25T11:11:15.906Z,2.00
2019-05-25T11:13:42.645Z,2.30
2019-05-25T11:16:09.434Z,2.03
2019-05-25T11:18:37.207Z,2.00
2019-05-25T11:21:03.841Z,2.13
2019-05-25T11:23:30.680Z,2.20
2019-05-25T11:25:57.412Z,2.03
2019-05-25T11:28:24.365Z,1.80
2019-05-25T11:30:51.055Z,2.50
2019-05-25T11:33:17.802Z,2.30
2019-05-25T11:35:44.446Z,2.20
2019-05-25T11:38:11.506Z,2.10
2019-05-25T11:40:38.362Z,2.13
2019-05-25T11:43:08.235Z,2.03
2019-05-25T11:45:34.961Z,2.67
2019-05-25T11:48:01.722Z,2.30
2019-05-25T11:50:28.735Z,2.37
2019-05-25T11:52:59.275Z,2.23
2019-05-25T11:55:26.244Z,2.23
2019-05-25T11:57:52.859Z,2.33
2019-05-25T12:00:25.252Z,1.87
2019-05-25T12:02:55.242Z,2.20
2019-05-25T12:05:23.912Z,2.17
2019-05-25T12:07:51.846Z,2.27
2019-05-25T12:10:20.573Z,2.00
2019-05-25T12:12:47.298Z,2.20
2019-05-25T12:15:15.560Z,1.83
2019-05-25T12:18:39.536Z,2.70
2019-05-25T12:21:06.398Z,2.03
2019-05-25T12:23:33.139Z,2.10
2019-05-25T12:25:59.755Z,2.10
2019-05-25T12:28:26.569Z,2.20
2019-05-25T12:30:53.204Z,1.60
2019-05-25T12:33:20.124Z,2.23
2019-05-25T12:35:46.799Z,1.90
2019-05-25T12:38:13.578Z,1.90
2019-05-25T12:40:53.220Z,2.10
2019-05-25T12:43:10.431Z,1.67
2019-05-25T12:45:37.225Z,1.90
2019-05-25T12:48:06.707Z,1.90
2019-05-25T12:50:34.419Z,2.00
2019-05-25T12:53:01.250Z,2.20
2019-05-25T12:55:28.161Z,2.27
2019-05-25T12:57:55.013Z,1.60
2019-05-25T13:00:22.496Z,2.33
2019-05-25T13:02:49.206Z,1.93
2019-05-25T13:05:16.093Z,1.80
2019-05-25T13:07:42.779Z,1.83
2019-05-25T13:10:09.883Z,2.10
2019-05-25T13:12:36.908Z,2.70
2019-05-25T13:15:05.685Z,2.40
2019-05-25T13:17:32.333Z,2.10
2019-05-25T13:19:59.051Z,2.30
2019-05-25T13:22:25.890Z,2.00
2019-05-25T13:24:52.914Z,2.43
2019-05-25T13:27:19.702Z,2.60
2019-05-25T13:29:46.662Z,2.33
2019-05-25T13:32:13.324Z,2.50
2019-05-25T13:34:41.130Z,2.20
2019-05-25T13:37:07.682Z,3.17
2019-05-25T13:40:11.766Z,2.80
2019-05-25T13:42:38.475Z,2.87
2019-05-25T13:45:07.975Z,2.87
2019-05-25T13:47:35.008Z,2.47
2019-05-25T13:50:07.004Z,3.67
2019-05-25T13:52:33.648Z,2.90
2019-05-25T13:55:00.265Z,3.37
2019-05-25T13:57:26.969Z,3.17
2019-05-25T13:59:53.868Z,2.80
2019-05-25T14:02:20.426Z,3.30
2019-05-25T14:04:47.176Z,2.90
2019-05-25T14:07:13.879Z,3.50
2019-05-25T14:09:40.691Z,3.07
2019-05-25T14:12:07.536Z,3.00
2019-05-25T14:14:34.153Z,3.70
2019-05-25T14:17:01.062Z,4.07
2019-05-25T14:19:28.043Z,2.80
2019-05-25T14:21:54.748Z,3.23
2019-05-25T14:24:21.464Z,3.13
2019-05-25T14:27:44.583Z,3.40
2019-05-25T14:30:12.448Z,3.30
2019-05-25T14:32:39.153Z,3.40
2019-05-25T14:35:06.642Z,2.57
2019-05-25T14:37:33.770Z,3.43
2019-05-25T14:40:00.461Z,3.50
2019-05-25T14:42:27.312Z,2.70
2019-05-25T14:44:55.155Z,3.70
2019-05-25T14:47:22.156Z,5.80
2019-05-25T14:49:48.706Z,5.50
2019-05-25T14:52:15.809Z,3.80
2019-05-25T14:54:42.422Z,3.33
2019-05-25T14:57:09.174Z,3.47
2019-05-25T14:59:35.884Z,4.07
2019-05-25T15:02:03.939Z,3.30
2019-05-25T15:04:31.038Z,3.23
2019-05-25T15:06:57.993Z,3.60
2019-05-25T15:09:24.823Z,4.03
2019-05-25T15:11:54.050Z,4.20
2019-05-25T15:14:20.046Z,4.50
2019-05-25T15:16:46.887Z,3.40
2019-05-25T15:19:14.196Z,3.70
2019-05-25T15:21:42.490Z,4.87
2019-05-25T15:24:09.243Z,4.10
2019-05-25T15:26:35.988Z,4.03
2019-05-25T15:29:02.895Z,2.70
2019-05-25T15:31:29.830Z,3.77
2019-05-25T15:33:56.707Z,4.00
2019-05-25T15:36:23.493Z,3.50
2019-05-25T15:38:50.108Z,3.50
2019-05-25T15:41:17.034Z,3.30
2019-05-25T15:43:43.889Z,3.50
2019-05-25T15:46:10.747Z,3.43
2019-05-25T15:48:37.471Z,6.80
2019-05-25T15:51:05.980Z,4.43
2019-05-25T15:53:33.724Z,4.43
2019-05-25T15:56:00.308Z,3.43
2019-05-25T15:58:27.218Z,3.97
2019-05-25T16:00:54.149Z,4.13
2019-05-25T16:03:21.148Z,4.23
2019-05-25T16:05:49.348Z,2.13
2019-05-25T16:08:20.095Z,2.37
2019-05-25T16:10:47.495Z,4.07
2019-05-25T16:13:16.094Z,3.70
2019-05-25T16:15:42.923Z,2.60
2019-05-25T16:18:09.881Z,2.93
2019-05-25T16:20:36.561Z,3.97
2019-05-25T16:23:03.465Z,5.90
2019-05-25T16:25:30.452Z,3.43
2019-05-25T16:27:57.149Z,2.20
2019-05-25T16:30:24.100Z,5.80
2019-05-25T16:35:20.379Z,2.23
2019-05-25T16:37:47.571Z,2.20
2019-05-25T16:40:15.625Z,1.43
2019-05-25T16:42:42.412Z,1.73
2019-05-25T16:45:09.505Z,1.70
2019-05-25T16:47:38.949Z,2.80
2019-05-25T16:50:09.450Z,6.50
2019-05-25T16:52:36.215Z,2.10
2019-05-25T16:55:05.626Z,3.40
2019-05-25T16:57:32.333Z,2.20
2019-05-25T16:59:59.060Z,1.67
2019-05-25T17:02:25.659Z,1.57
2019-05-25T17:04:53.861Z,1.73
2019-05-25T17:07:20.399Z,1.60
2019-05-25T17:09:46.971Z,1.63
2019-05-25T17:12:13.495Z,2.80
2019-05-25T17:14:40.294Z,2.00
2019-05-25T17:17:07.049Z,2.30
2019-05-25T17:19:35.264Z,2.20
2019-05-25T17:22:02.370Z,1.87
2019-05-25T17:24:29.074Z,1.63
2019-05-25T17:26:57.350Z,1.60
2019-05-25T17:29:24.036Z,1.53
2019-05-25T17:31:50.656Z,2.13
2019-05-25T17:34:19.093Z,1.90
2019-05-25T17:36:45.810Z,2.43
2019-05-25T17:39:12.691Z,1.57
2019-05-25T17:41:40.053Z,1.50
2019-05-25T17:44:07.071Z,2.73
2019-05-25T17:46:33.787Z,1.73
2019-05-25T17:49:00.497Z,1.70
2019-05-25T17:51:27.252Z,1.97
2019-05-25T17:53:54.140Z,1.87
2019-05-25T17:56:20.840Z,1.40
2019-05-25T17:58:47.623Z,1.77
2019-05-25T18:01:15.960Z,1.83
2019-05-25T18:03:43.174Z,2.00
2019-05-25T18:06:10.032Z,1.90
2019-05-25T18:08:36.746Z,2.17
2019-05-25T18:11:03.978Z,2.40
2019-05-25T18:13:30.790Z,2.43
2019-05-25T18:15:58.061Z,1.30
2019-05-25T18:18:24.721Z,1.87
2019-05-25T18:20:51.446Z,4.90
2019-05-25T18:23:18.469Z,2.63
2019-05-25T18:25:45.416Z,2.37
2019-05-25T18:28:12.137Z,2.37
2019-05-25T18:30:38.754Z,2.70
2019-05-25T18:33:05.332Z,1.60
2019-05-25T18:35:31.996Z,1.80
2019-05-25T18:37:58.706Z,1.57
2019-05-25T18:40:25.526Z,1.60
2019-05-25T18:42:52.555Z,2.30
2019-05-25T18:45:19.438Z,2.30
2019-05-25T18:47:46.006Z,1.90
2019-05-25T18:50:13.557Z,1.70
2019-05-25T18:52:44.973Z,2.47
2019-05-25T18:55:15.479Z,3.20
2019-05-25T18:57:42.302Z,2.20
2019-05-25T19:00:10.089Z,1.70
2019-05-25T19:02:37.172Z,1.67
2019-05-25T19:05:06.275Z,1.53
2019-05-25T19:07:33.269Z,1.53
2019-05-25T19:10:00.102Z,1.90
2019-05-25T19:12:29.270Z,1.40
2019-05-25T19:14:55.867Z,2.40
2019-05-25T19:17:22.636Z,2.80
2019-05-25T19:19:49.730Z,2.10
2019-05-25T19:22:16.550Z,2.80
2019-05-25T19:24:44.263Z,2.80
2019-05-25T19:27:13.637Z,2.40
2019-05-25T19:29:42.368Z,2.17
2019-05-25T19:32:09.343Z,2.67
2019-05-25T19:34:36.390Z,2.43
2019-05-25T19:37:07.562Z,2.77
2019-05-25T19:39:37.633Z,2.33
2019-05-25T19:42:04.745Z,2.90
2019-05-25T19:44:32.294Z,2.40
2019-05-25T19:46:59.154Z,2.70
2019-05-25T19:49:27.048Z,2.43
2019-05-25T19:51:54.612Z,2.07
2019-05-25T19:54:22.435Z,2.20
2019-05-25T19:56:49.296Z,2.63
2019-05-25T19:59:16.093Z,2.23
2019-05-25T20:01:43.104Z,2.53
2019-05-25T20:04:10.022Z,2.90
2019-05-25T20:06:45.891Z,3.53
2019-05-25T20:09:16.172Z,2.80
2019-05-25T20:11:43.424Z,3.27
2019-05-25T20:14:10.306Z,2.63
2019-05-25T20:16:38.533Z,2.63
2019-05-25T20:19:06.119Z,2.33
2019-05-25T20:21:35.920Z,2.10
2019-05-25T20:24:03.396Z,2.10
2019-05-25T20:26:31.115Z,2.53
2019-05-25T20:28:58.197Z,2.40
2019-05-25T20:31:25.595Z,2.53
2019-05-25T20:33:53.185Z,2.60
2019-05-25T20:36:19.899Z,2.60
2019-05-25T20:38:47.178Z,2.63
2019-05-25T20:41:14.284Z,2.47
2019-05-25T20:43:41.646Z,2.37
2019-05-25T20:46:08.212Z,2.30
2019-05-25T20:48:35.099Z,2.20
2019-05-25T20:51:03.096Z,3.10
2019-05-25T20:53:30.269Z,2.20
2019-05-25T20:55:57.748Z,2.43
2019-05-25T20:58:24.630Z,2.23
2019-05-25T21:00:52.714Z,2.50
2019-05-25T21:03:20.250Z,2.40
2019-05-25T21:05:55.646Z,2.23
2019-05-25T21:08:29.897Z,2.17
2019-05-25T21:10:57.025Z,3.17
2019-05-25T21:13:23.734Z,2.60
2019-05-25T21:15:50.536Z,2.40
2019-05-25T21:18:17.128Z,2.13
2019-05-25T21:20:43.966Z,2.50
2019-05-25T21:23:11.198Z,2.30
2019-05-25T21:25:38.384Z,3.37
2019-05-25T21:28:04.989Z,2.23
2019-05-25T21:30:31.731Z,2.50
2019-05-25T21:32:58.404Z,2.67
2019-05-25T21:35:25.411Z,2.30
2019-05-25T21:37:53.495Z,2.50
2019-05-25T21:40:20.760Z,2.90
2019-05-25T21:42:50.400Z,2.67
2019-05-25T21:45:17.775Z,2.60
2019-05-25T21:47:44.435Z,2.27
2019-05-25T21:50:13.152Z,2.77
2019-05-25T21:52:39.900Z,3.33
2019-05-25T21:55:07.914Z,3.03
2019-05-25T21:57:34.826Z,3.30
2019-05-25T22:00:03.072Z,2.90
2019-05-25T22:02:30.293Z,3.43
2019-05-25T22:04:57.010Z,3.40
2019-05-25T22:07:23.594Z,2.83
2019-05-25T22:09:50.328Z,3.37
2019-05-25T22:12:17.014Z,3.70
2019-05-25T22:14:43.725Z,3.57
2019-05-25T22:17:10.559Z,3.80
2019-05-25T22:19:39.538Z,3.63
2019-05-25T22:22:06.246Z,3.47
2019-05-25T22:24:32.830Z,3.70
2019-05-25T22:26:59.558Z,4.30
2019-05-25T22:29:26.343Z,3.63
2019-05-25T22:31:53.221Z,3.97
2019-05-25T22:34:19.813Z,4.47
2019-05-25T22:36:46.469Z,3.70
2019-05-25T22:39:13.173Z,3.70
2019-05-25T22:41:40.018Z,4.00
2019-05-25T22:44:06.646Z,3.53
2019-05-25T22:46:33.598Z,4.37
2019-05-25T22:49:00.665Z,3.93
2019-05-25T22:51:27.626Z,4.03
2019-05-25T22:53:54.541Z,4.77
2019-05-25T22:56:21.223Z,3.87
2019-05-25T22:58:48.001Z,3.90
2019-05-25T23:01:14.642Z,5.00
2019-05-25T23:03:41.346Z,4.40
2019-05-25T23:06:07.916Z,4.97
2019-05-25T23:08:34.509Z,4.60
2019-05-25T23:11:01.357Z,4.77
2019-05-25T23:13:31.502Z,4.03
2019-05-25T23:15:58.263Z,4.90
2019-05-25T23:18:24.902Z,4.23
2019-05-25T23:20:51.491Z,4.73
2019-05-25T23:23:18.421Z,4.70
2019-05-25T23:25:44.973Z,4.10
2019-05-25T23:28:11.574Z,4.13
2019-05-25T23:30:39.492Z,4.10
2019-05-25T23:33:06.416Z,4.50
2019-05-25T23:35:33.173Z,4.43
2019-05-25T23:38:03.339Z,4.63
2019-05-25T23:40:28.552Z,4.13
2019-05-25T23:42:55.329Z,5.07
2019-05-25T23:45:22.105Z,4.67
2019-05-25T23:47:48.649Z,4.70
2019-05-25T23:50:16.407Z,4.97
2019-05-25T23:52:43.137Z,4.90
2019-05-25T23:55:11.140Z,5.03
2019-05-25T23:57:39.613Z,5.20
